Accueil
METAR-TAF:

METAR-TAF

Aéroports :

Aéroport international Roi-Abdelaziz

Djeddah, Arabie saoudite

latitude: 21-42N, longitude: 039-11E, altitude: 15 m

Observation

Le bulletin a été fait il y a 11 minutes, à 04:00 UTC
Vent 4 kt de ouest/nord-ouest
Température 31°C
Humidité 66%
Pression 1001 hPa
Visibilité 10 km ou plus
pas de nuages en-dessous de 1500 mètres et pas de cumulonimbus.

METAR: OEJN 230400Z 30004KT CAVOK 31/24 Q1001 NOSIG

Heure: 07:11 (04:11 UTC)

Prévision

Le bulletin a été fait il y a 5 heures et 11 minutes, à 23:00 UTC
Prévision valable du 23 à 00 UTC au 24 à 06 UTC
Vent 6 kt de nord/nord-est
Visibilité 10 km ou plus
Nuages épars à une hauteur de 4000 ft
Evoluant progressivement
du 23 à 06 UTC au 23 à 08 UTC
Vent 14 kt de ouest

TAF: OEJN 222300Z 2300/2406 03006KT 9999 SCT040 BECMG 2306/2308 27014KT

Observations et prévisions météorologiques de plus de 4000 aéroports (messages METAR et TAF).

Les stations disponibles sont représentées par des disques jaunes et rouges sur la carte.

Passer la souris dessus pour voir le nom de la station.

Cliquer dessus pour voir les observations et prévisions météorologiques.

Pour changer de carte: cliquez sur les boutons verts avec une croix noire pour zoomer, sur le bouton vert avec un tiret pour effectuer un zoom arrière, ou sur les flèches vertes pour les cartes adjacentes.


METAR-TAF: